Agreda, Spain
Current Conditions -  °F | °C
As of 11:00 AM on Saturday 25 Oct 2014 (Local Time) from LELO Reporting Station
Clear Clear  
Wind Chill: 63°   Ceiling: Unl
Heat Index: 63°   Visibility: 6mi
Dew Point: 52°   Wind: 8mph
Humidity: 68%   Direction: 270°W
Pressure: 30.18"   Gusts: NA
Location:  41.86°N, 1.92°W
Report Text: LELO 250900Z 27007KT 240V300 CAVOK 17/11 Q1022
Loading
Personal Weather Stations






























Interactive Weather Map
Tropical Storm Tracking
New forecast layout! Learn more

10-Day Weather Forecast

Advertisements
Track Severe Weather on mobile